createdAt,value
2023-03-15T00:00:42.971Z,4.78
2023-03-15T00:01:43.034Z,4.78
2023-03-15T00:02:43.022Z,4.77
2023-03-15T00:03:43.056Z,4.75
2023-03-15T00:04:42.926Z,4.75
2023-03-15T00:05:42.924Z,4.75
2023-03-15T00:06:42.935Z,4.78
2023-03-15T00:07:42.924Z,4.78
2023-03-15T00:08:42.876Z,4.77
2023-03-15T00:09:42.881Z,4.77
2023-03-15T00:10:42.843Z,4.77
2023-03-15T00:11:42.869Z,4.72
2023-03-15T00:12:42.877Z,4.77
2023-03-15T00:13:42.843Z,4.77
2023-03-15T00:14:42.803Z,4.77
2023-03-15T00:15:42.904Z,4.78
2023-03-15T00:16:42.771Z,4.78
2023-03-15T00:17:42.816Z,4.77
2023-03-15T00:18:42.745Z,4.75
2023-03-15T00:19:42.749Z,4.75
2023-03-15T00:20:42.706Z,4.78
2023-03-15T00:21:42.716Z,4.78
2023-03-15T00:22:42.751Z,4.77
2023-03-15T00:23:42.708Z,4.75
2023-03-15T00:24:42.651Z,4.75
2023-03-15T00:25:42.700Z,4.72
2023-03-15T00:26:42.636Z,4.72
2023-03-15T00:27:42.739Z,4.69
2023-03-15T00:28:42.626Z,4.66
2023-03-15T00:29:42.617Z,4.67
2023-03-15T00:30:42.568Z,4.66
2023-03-15T00:31:42.580Z,4.63
2023-03-15T00:32:42.580Z,4.60
2023-03-15T00:33:42.591Z,4.58
2023-03-15T00:34:42.539Z,4.55
2023-03-15T00:35:42.567Z,4.52
2023-03-15T00:36:42.496Z,4.50
2023-03-15T00:37:42.505Z,4.47
2023-03-15T00:38:42.502Z,4.47
2023-03-15T00:39:42.477Z,4.44
2023-03-15T00:40:42.460Z,4.42
2023-03-15T00:41:42.457Z,4.41
2023-03-15T00:42:42.418Z,4.40
2023-03-15T00:43:42.438Z,4.37
2023-03-15T00:44:42.416Z,4.36
2023-03-15T00:45:42.410Z,4.32
2023-03-15T00:46:42.396Z,4.30
2023-03-15T00:47:42.372Z,4.30
2023-03-15T00:48:42.341Z,4.27
2023-03-15T00:49:42.374Z,4.23
2023-03-15T00:50:42.309Z,4.20
2023-03-15T00:51:42.330Z,4.20
2023-03-15T00:52:42.301Z,4.20
2023-03-15T00:53:42.298Z,4.16
2023-03-15T00:54:42.284Z,4.14
2023-03-15T00:55:42.280Z,4.11
2023-03-15T00:56:42.248Z,4.06
2023-03-15T00:57:42.258Z,4.05
2023-03-15T00:58:42.205Z,4.05
2023-03-15T00:59:42.220Z,4.06
2023-03-15T01:00:42.192Z,4.06
2023-03-15T01:01:42.232Z,4.00
2023-03-15T01:02:42.198Z,4.00
2023-03-15T01:03:42.162Z,4.00
2023-03-15T01:04:42.168Z,3.97
2023-03-15T01:05:42.158Z,3.93
2023-03-15T01:06:42.132Z,3.91
2023-03-15T01:07:42.124Z,3.90
2023-03-15T01:08:42.064Z,3.88
2023-03-15T01:09:42.130Z,3.80
2023-03-15T01:10:42.062Z,3.76
2023-03-15T01:11:42.087Z,3.79
2023-03-15T01:12:42.035Z,3.80
2023-03-15T01:13:42.067Z,3.83
2023-03-15T01:14:42.037Z,3.79
2023-03-15T01:15:42.073Z,3.83
2023-03-15T01:16:41.985Z,3.84
2023-03-15T01:17:41.982Z,3.83
2023-03-15T01:18:41.940Z,3.80
2023-03-15T01:19:41.944Z,3.84
2023-03-15T01:20:41.921Z,3.83
2023-03-15T01:21:41.977Z,3.78
2023-03-15T01:22:41.894Z,3.76
2023-03-15T01:23:41.907Z,3.73
2023-03-15T01:24:41.872Z,3.72
2023-03-15T01:25:41.909Z,3.72
2023-03-15T01:26:41.876Z,3.69
2023-03-15T01:27:41.921Z,3.68
2023-03-15T01:28:41.850Z,3.66
2023-03-15T01:29:41.847Z,3.66
2023-03-15T01:30:41.812Z,3.66
2023-03-15T01:31:41.891Z,3.70
2023-03-15T01:32:41.861Z,3.70
2023-03-15T01:33:41.784Z,3.70
2023-03-15T01:34:41.736Z,3.70
2023-03-15T01:35:41.803Z,3.69
2023-03-15T01:36:41.721Z,3.69
2023-03-15T01:37:41.721Z,3.68
2023-03-15T01:38:41.705Z,3.66
2023-03-15T01:39:41.696Z,3.61
2023-03-15T01:40:41.671Z,3.62
2023-03-15T01:41:41.698Z,3.65
2023-03-15T01:42:41.650Z,3.65
2023-03-15T01:43:41.656Z,3.65
2023-03-15T01:44:41.597Z,3.62
2023-03-15T01:45:41.604Z,3.61
2023-03-15T01:46:41.622Z,3.62
2023-03-15T01:47:41.610Z,3.66
2023-03-15T01:48:41.570Z,3.69
2023-03-15T01:49:41.559Z,3.68
2023-03-15T01:50:41.516Z,3.69
2023-03-15T01:51:41.534Z,3.70
2023-03-15T01:52:41.525Z,3.66
2023-03-15T01:53:41.501Z,3.60
2023-03-15T01:54:41.477Z,3.61
2023-03-15T01:55:41.501Z,3.58
2023-03-15T01:56:41.457Z,3.52
2023-03-15T01:57:41.488Z,3.52
2023-03-15T01:58:41.458Z,3.55
2023-03-15T01:59:41.443Z,3.55
2023-03-15T02:00:41.460Z,3.54
2023-03-15T02:01:41.410Z,3.50
2023-03-15T02:02:41.457Z,3.45
2023-03-15T02:03:41.409Z,3.42
2023-03-15T02:04:41.330Z,3.36
2023-03-15T02:05:41.374Z,3.36
2023-03-15T02:06:41.315Z,3.32
2023-03-15T02:07:41.339Z,3.29
2023-03-15T02:08:41.380Z,3.31
2023-03-15T02:09:41.303Z,3.29
2023-03-15T02:10:41.261Z,3.29
2023-03-15T02:11:41.268Z,3.28
2023-03-15T02:12:41.235Z,3.31
2023-03-15T02:13:41.301Z,3.31
2023-03-15T02:14:41.227Z,3.29
2023-03-15T02:15:41.227Z,3.29
2023-03-15T02:16:41.251Z,3.33
2023-03-15T02:17:41.206Z,3.35
2023-03-15T02:18:41.186Z,3.35
2023-03-15T02:19:41.171Z,3.32
2023-03-15T02:20:41.152Z,3.32
2023-03-15T02:21:41.131Z,3.29
2023-03-15T02:22:41.122Z,3.29
2023-03-15T02:23:41.153Z,3.28
2023-03-15T02:24:41.116Z,3.26
2023-03-15T02:25:41.091Z,3.24
2023-03-15T02:26:41.064Z,3.24
2023-03-15T02:27:41.071Z,3.23
2023-03-15T02:28:41.064Z,3.21
2023-03-15T02:29:41.044Z,3.18
2023-03-15T02:30:41.001Z,3.15
2023-03-15T02:31:41.026Z,3.14
2023-03-15T02:32:41.011Z,3.13
2023-03-15T02:33:40.999Z,3.11
2023-03-15T02:34:40.966Z,3.08
2023-03-15T02:35:40.976Z,3.03
2023-03-15T02:36:40.913Z,3.05
2023-03-15T02:37:40.954Z,3.05
2023-03-15T02:38:40.898Z,3.02
2023-03-15T02:39:40.909Z,3.02
2023-03-15T02:40:40.868Z,3.02
2023-03-15T02:41:40.912Z,3.02
2023-03-15T02:42:40.858Z,3.02
2023-03-15T02:43:40.882Z,3.00
2023-03-15T02:44:40.836Z,3.02
2023-03-15T02:45:40.882Z,2.99
2023-03-15T02:46:40.822Z,3.00
2023-03-15T02:47:40.827Z,3.03
2023-03-15T02:48:40.767Z,3.05
2023-03-15T02:49:40.799Z,3.06
2023-03-15T02:50:40.762Z,3.10
2023-03-15T02:51:40.786Z,3.06
2023-03-15T02:52:40.721Z,3.10
2023-03-15T02:53:40.756Z,3.08
2023-03-15T02:54:40.719Z,3.08
2023-03-15T02:55:40.727Z,3.08
2023-03-15T02:56:40.663Z,3.10
2023-03-15T02:57:40.724Z,3.06
2023-03-15T02:58:40.630Z,3.03
2023-03-15T02:59:40.655Z,2.99
2023-03-15T03:00:40.641Z,2.96
2023-03-15T03:01:40.672Z,2.97
2023-03-15T03:02:40.608Z,2.99
2023-03-15T03:03:40.624Z,2.99
2023-03-15T03:04:40.565Z,2.97
2023-03-15T03:05:40.570Z,2.97
2023-03-15T03:06:40.546Z,2.96
2023-03-15T03:07:40.545Z,2.97
2023-03-15T03:08:40.529Z,2.97
2023-03-15T03:09:40.522Z,2.97
2023-03-15T03:10:40.487Z,3.00
2023-03-15T03:11:40.490Z,2.99
2023-03-15T03:12:40.453Z,2.97
2023-03-15T03:13:40.465Z,2.92
2023-03-15T03:14:40.479Z,2.89
2023-03-15T03:15:40.449Z,2.89
2023-03-15T03:16:40.431Z,2.85
2023-03-15T03:17:40.458Z,2.85
2023-03-15T03:18:40.382Z,2.85
2023-03-15T03:19:40.425Z,2.87
2023-03-15T03:20:40.391Z,2.89
2023-03-15T03:21:40.352Z,2.85
2023-03-15T03:22:41.114Z,2.78
2023-03-15T03:23:40.353Z,2.75
2023-03-15T03:24:40.350Z,2.72
2023-03-15T03:25:40.318Z,2.71
2023-03-15T03:26:40.285Z,2.71
2023-03-15T03:27:40.284Z,2.71
2023-03-15T03:28:40.253Z,2.71
2023-03-15T03:29:40.254Z,2.69
2023-03-15T03:30:40.277Z,2.67
2023-03-15T03:31:40.238Z,2.66
2023-03-15T03:32:40.244Z,2.66
2023-03-15T03:33:40.191Z,2.66
2023-03-15T03:34:40.207Z,2.63
2023-03-15T03:35:40.159Z,2.60
2023-03-15T03:36:40.151Z,2.59
2023-03-15T03:37:40.144Z,2.61
2023-03-15T03:38:40.164Z,2.63
2023-03-15T03:39:40.117Z,2.63
2023-03-15T03:40:40.122Z,2.60
2023-03-15T03:41:40.105Z,2.60
2023-03-15T03:42:40.070Z,2.60
2023-03-15T03:43:40.046Z,2.59
2023-03-15T03:44:40.064Z,2.56
2023-03-15T03:45:40.051Z,2.56
2023-03-15T03:46:40.052Z,2.59
2023-03-15T03:47:39.993Z,2.54
2023-03-15T03:48:40.014Z,2.56
2023-03-15T03:49:39.970Z,2.57
2023-03-15T03:50:39.974Z,2.60
2023-03-15T03:51:39.967Z,2.61
2023-03-15T03:52:39.954Z,2.59
2023-03-15T03:53:39.898Z,2.56
2023-03-15T03:54:39.940Z,2.57
2023-03-15T03:55:39.905Z,2.59
2023-03-15T03:56:39.925Z,2.59
2023-03-15T03:57:39.858Z,2.60
2023-03-15T03:58:39.890Z,2.60
2023-03-15T03:59:39.854Z,2.60
2023-03-15T04:00:39.861Z,2.61
2023-03-15T04:01:39.865Z,2.63
2023-03-15T04:02:39.868Z,2.61
2023-03-15T04:03:39.851Z,2.59
2023-03-15T04:04:39.889Z,2.56
2023-03-15T04:05:39.752Z,2.53
2023-03-15T04:06:39.804Z,2.49
2023-03-15T04:07:39.722Z,2.52
2023-03-15T04:08:39.777Z,2.48
2023-03-15T04:09:39.728Z,2.48
2023-03-15T04:10:39.724Z,2.49
2023-03-15T04:11:39.686Z,2.46
2023-03-15T04:12:39.850Z,2.45
2023-03-15T04:13:39.658Z,2.46
2023-03-15T04:14:39.657Z,2.46
2023-03-15T04:15:39.698Z,2.46
2023-03-15T04:16:39.655Z,2.53
2023-03-15T04:17:39.591Z,2.56
2023-03-15T04:18:39.657Z,2.59
2023-03-15T04:19:39.568Z,2.59
2023-03-15T04:20:39.589Z,2.57
2023-03-15T04:21:39.597Z,2.56
2023-03-15T04:22:39.578Z,2.52
2023-03-15T04:23:39.534Z,2.46
2023-03-15T04:24:39.541Z,2.43
2023-03-15T04:25:39.489Z,2.43
2023-03-15T04:26:39.523Z,2.43
2023-03-15T04:27:39.554Z,2.43
2023-03-15T04:28:39.480Z,2.42
2023-03-15T04:29:39.472Z,2.39
2023-03-15T04:30:39.467Z,2.38
2023-03-15T04:31:39.526Z,2.36
2023-03-15T04:32:39.493Z,2.31
2023-03-15T04:33:39.389Z,2.27
2023-03-15T04:34:39.412Z,2.20
2023-03-15T04:35:39.466Z,2.17
2023-03-15T04:36:39.381Z,2.18
2023-03-15T04:37:39.370Z,2.18
2023-03-15T04:38:39.339Z,2.16
2023-03-15T04:39:39.330Z,2.14
2023-03-15T04:40:39.326Z,2.10
2023-03-15T04:41:39.313Z,2.07
2023-03-15T04:42:39.321Z,2.05
2023-03-15T04:43:39.288Z,2.03
2023-03-15T04:44:39.276Z,2.02
2023-03-15T04:45:39.248Z,2.05
2023-03-15T04:46:39.337Z,2.07
2023-03-15T04:47:39.231Z,2.07
2023-03-15T04:48:39.240Z,2.09
2023-03-15T04:49:39.202Z,2.09
2023-03-15T04:50:39.202Z,2.07
2023-03-15T04:51:39.168Z,2.07
2023-03-15T04:52:39.174Z,2.07
2023-03-15T04:53:39.160Z,2.05
2023-03-15T04:54:39.140Z,2.02
2023-03-15T04:55:39.118Z,2.02
2023-03-15T04:56:39.137Z,2.00
2023-03-15T04:57:39.105Z,1.98
2023-03-15T04:58:39.107Z,1.98
2023-03-15T04:59:39.047Z,2.00
2023-03-15T05:00:39.131Z,1.98
2023-03-15T05:01:39.131Z,1.95
2023-03-15T05:02:39.054Z,1.98
2023-03-15T05:03:39.009Z,1.98
2023-03-15T05:04:39.008Z,1.93
2023-03-15T05:05:39.011Z,1.90
2023-03-15T05:06:38.982Z,1.84
2023-03-15T05:07:38.961Z,1.80
2023-03-15T05:08:38.969Z,1.84
2023-03-15T05:09:39.955Z,1.83
2023-03-15T05:10:38.962Z,1.81
2023-03-15T05:11:38.911Z,1.81
2023-03-15T05:12:38.932Z,1.81
2023-03-15T05:13:38.881Z,1.86
2023-03-15T05:14:38.892Z,1.86
2023-03-15T05:15:38.924Z,1.84
2023-03-15T05:16:39.036Z,1.88
2023-03-15T05:17:38.834Z,1.88
2023-03-15T05:18:38.833Z,1.88
2023-03-15T05:19:38.815Z,1.87
2023-03-15T05:20:38.812Z,1.87
2023-03-15T05:21:38.802Z,1.86
2023-03-15T05:22:38.815Z,1.87
2023-03-15T05:23:38.769Z,1.88
2023-03-15T05:24:38.762Z,1.88
2023-03-15T05:25:38.898Z,1.90
2023-03-15T05:26:38.737Z,1.87
2023-03-15T05:27:38.703Z,1.84
2023-03-15T05:28:38.726Z,1.83
2023-03-15T05:29:38.663Z,1.84
2023-03-15T05:30:38.716Z,1.83
2023-03-15T05:31:38.676Z,1.81
2023-03-15T05:32:38.723Z,1.84
2023-03-15T05:33:38.641Z,1.83
2023-03-15T05:34:38.632Z,1.79
2023-03-15T05:35:38.610Z,1.77
2023-03-15T05:36:38.605Z,1.76
2023-03-15T05:37:38.591Z,1.79
2023-03-15T05:38:38.575Z,1.80
2023-03-15T05:39:38.571Z,1.83
2023-03-15T05:40:38.560Z,1.83
2023-03-15T05:41:38.508Z,1.84
2023-03-15T05:42:38.533Z,1.88
2023-03-15T05:43:38.489Z,1.90
2023-03-15T05:44:38.527Z,1.91
2023-03-15T05:45:38.487Z,1.91
2023-03-15T05:46:38.491Z,1.95
2023-03-15T05:47:38.450Z,1.95
2023-03-15T05:48:38.454Z,1.98
2023-03-15T05:49:38.422Z,1.99
2023-03-15T05:50:38.453Z,1.98
2023-03-15T05:51:38.379Z,1.98
2023-03-15T05:52:38.421Z,1.98
2023-03-15T05:53:38.364Z,2.00
2023-03-15T05:54:38.394Z,1.98
2023-03-15T05:55:38.326Z,1.91
2023-03-15T05:56:38.338Z,1.88
2023-03-15T05:57:38.323Z,1.86
2023-03-15T05:58:38.307Z,1.83
2023-03-15T05:59:38.284Z,1.83
2023-03-15T06:00:38.286Z,1.87
2023-03-15T06:01:38.262Z,1.90
2023-03-15T06:02:38.271Z,1.95
2023-03-15T06:03:38.378Z,1.98
2023-03-15T06:04:38.226Z,2.02
2023-03-15T06:05:38.212Z,2.02
2023-03-15T06:06:38.195Z,2.05
2023-03-15T06:07:38.160Z,2.09
2023-03-15T06:08:38.196Z,2.12
2023-03-15T06:09:38.152Z,2.12
2023-03-15T06:10:38.181Z,2.14
2023-03-15T06:11:38.116Z,2.17
2023-03-15T06:12:38.128Z,2.18
2023-03-15T06:13:38.106Z,2.18
2023-03-15T06:14:38.134Z,2.20
2023-03-15T06:15:38.081Z,2.23
2023-03-15T06:16:38.117Z,2.23
2023-03-15T06:17:38.079Z,2.20
2023-03-15T06:18:38.055Z,2.18
2023-03-15T06:19:38.147Z,2.14
2023-03-15T06:20:38.040Z,2.10
2023-03-15T06:21:37.993Z,2.09
2023-03-15T06:22:38.039Z,2.09
2023-03-15T06:23:37.992Z,2.12
2023-03-15T06:24:37.969Z,2.20
2023-03-15T06:25:37.939Z,2.20
2023-03-15T06:26:37.970Z,2.24
2023-03-15T06:27:37.912Z,2.25
2023-03-15T06:28:37.956Z,2.24
2023-03-15T06:29:37.865Z,2.27
2023-03-15T06:30:37.938Z,2.28
2023-03-15T06:31:37.855Z,2.28
2023-03-15T06:32:37.963Z,2.27
2023-03-15T06:33:37.833Z,2.28
2023-03-15T06:34:37.894Z,2.34
2023-03-15T06:35:37.811Z,2.38
2023-03-15T06:36:37.809Z,2.42
2023-03-15T06:37:37.764Z,2.45
2023-03-15T06:38:37.864Z,2.48
2023-03-15T06:39:37.747Z,2.53
2023-03-15T06:40:37.765Z,2.61
2023-03-15T06:41:37.725Z,2.66
2023-03-15T06:42:37.733Z,2.72
2023-03-15T06:43:37.691Z,2.81
2023-03-15T06:44:37.758Z,2.84
2023-03-15T06:45:37.660Z,2.87
2023-03-15T06:46:37.687Z,2.90
2023-03-15T06:47:37.661Z,2.90
2023-03-15T06:48:37.645Z,2.95
2023-03-15T06:49:37.666Z,3.02
2023-03-15T06:50:46.909Z,3.05
2023-03-15T06:51:37.612Z,3.13
2023-03-15T06:52:37.629Z,3.21
2023-03-15T06:53:37.567Z,3.29
2023-03-15T06:54:37.642Z,3.39
2023-03-15T06:55:37.543Z,3.48
2023-03-15T06:56:37.564Z,3.55
2023-03-15T06:57:37.507Z,3.62
2023-03-15T06:58:37.507Z,3.70
2023-03-15T06:59:37.508Z,3.73
2023-03-15T07:00:37.506Z,3.80
2023-03-15T07:01:37.537Z,3.83
2023-03-15T07:02:37.541Z,3.79
2023-03-15T07:03:37.483Z,3.75
2023-03-15T07:04:37.458Z,3.78
2023-03-15T07:05:37.448Z,3.79
2023-03-15T07:06:37.425Z,3.83
2023-03-15T07:07:37.389Z,3.88
2023-03-15T07:08:37.383Z,3.93
2023-03-15T07:09:37.369Z,3.96
2023-03-15T07:10:37.372Z,4.02
2023-03-15T07:11:37.326Z,4.02
2023-03-15T07:12:37.353Z,4.06
2023-03-15T07:13:37.323Z,4.09
2023-03-15T07:14:37.426Z,4.12
2023-03-15T07:15:37.349Z,4.14
2023-03-15T07:16:37.323Z,4.15
2023-03-15T07:17:37.266Z,4.12
2023-03-15T07:18:37.300Z,4.18
2023-03-15T07:19:41.489Z,4.16
2023-03-15T07:20:37.864Z,4.18
2023-03-15T07:21:37.263Z,4.16
2023-03-15T07:22:37.221Z,4.14
2023-03-15T07:23:37.208Z,4.11
2023-03-15T07:24:37.200Z,4.11
2023-03-15T07:25:52.079Z,4.12
2023-03-15T07:26:37.181Z,4.14
2023-03-15T07:27:37.163Z,4.16
2023-03-15T07:28:37.145Z,4.20
2023-03-15T07:29:37.097Z,4.27
2023-03-15T07:30:37.118Z,4.37
2023-03-15T07:31:37.061Z,4.45
2023-03-15T07:32:37.256Z,4.48
2023-03-15T07:33:37.051Z,4.54
2023-03-15T07:34:37.050Z,4.54
2023-03-15T07:35:37.031Z,4.52
2023-03-15T07:36:37.022Z,4.51
2023-03-15T07:37:38.457Z,4.51
2023-03-15T07:38:37.018Z,4.47
2023-03-15T07:39:36.977Z,4.48
2023-03-15T07:40:36.980Z,4.48
2023-03-15T07:41:36.923Z,4.48
2023-03-15T07:42:36.958Z,4.47
2023-03-15T07:43:36.959Z,4.44
2023-03-15T07:44:36.933Z,4.34
2023-03-15T07:45:36.880Z,4.33
2023-03-15T07:46:36.964Z,4.32
2023-03-15T07:47:36.857Z,4.32
2023-03-15T07:48:36.861Z,4.36
2023-03-15T07:49:36.875Z,4.36
2023-03-15T07:50:36.815Z,4.42
2023-03-15T07:51:36.854Z,4.45
2023-03-15T07:52:36.802Z,4.48
2023-03-15T07:53:36.818Z,4.47
2023-03-15T07:54:36.785Z,4.48
2023-03-15T07:55:36.769Z,4.50
2023-03-15T07:56:36.746Z,4.51
2023-03-15T07:57:36.733Z,4.51
2023-03-15T07:58:36.696Z,4.54
2023-03-15T07:59:36.741Z,4.55
2023-03-15T08:00:36.701Z,4.60
2023-03-15T08:01:36.706Z,4.67
2023-03-15T08:02:36.815Z,4.70
2023-03-15T08:03:36.677Z,4.66
2023-03-15T08:04:37.092Z,4.70
2023-03-15T08:05:36.660Z,4.73
2023-03-15T08:06:36.614Z,4.78
2023-03-15T08:07:36.613Z,4.82
2023-03-15T08:08:36.580Z,4.86
2023-03-15T08:09:36.607Z,4.88
2023-03-15T08:10:36.712Z,4.96
2023-03-15T08:12:36.510Z,5.03
2023-03-15T08:13:36.536Z,5.10
2023-03-15T08:14:36.495Z,5.17
2023-03-15T08:15:36.500Z,5.22
2023-03-15T08:16:36.618Z,5.38
2023-03-15T08:17:36.479Z,5.43
2023-03-15T08:18:36.444Z,5.56
2023-03-15T08:19:36.449Z,5.67
2023-03-15T08:20:36.458Z,5.79
2023-03-15T08:21:36.516Z,5.83
2023-03-15T08:22:38.459Z,5.93
2023-03-15T08:23:36.399Z,5.94
2023-03-15T08:24:36.361Z,5.93
2023-03-15T08:25:36.381Z,5.93
2023-03-15T08:26:36.352Z,5.94
2023-03-15T08:27:36.348Z,5.97
2023-03-15T08:28:36.336Z,6.06
2023-03-15T08:29:36.319Z,6.14
2023-03-15T08:30:36.298Z,6.15
2023-03-15T08:31:36.358Z,6.09
2023-03-15T08:32:36.273Z,6.17
2023-03-15T08:33:36.278Z,6.28
2023-03-15T08:34:36.245Z,6.44
2023-03-15T08:35:36.304Z,6.61
2023-03-15T08:36:36.292Z,6.67
2023-03-15T08:37:36.274Z,6.70
2023-03-15T08:38:36.309Z,6.74
2023-03-15T08:39:36.245Z,6.77
2023-03-15T08:40:37.027Z,6.85
2023-03-15T08:41:36.194Z,6.94
2023-03-15T08:42:36.129Z,6.94
2023-03-15T08:43:36.137Z,6.91
2023-03-15T08:44:36.395Z,6.92
2023-03-15T08:45:51.244Z,6.77
2023-03-15T08:46:36.193Z,6.74
2023-03-15T08:47:36.110Z,6.70
2023-03-15T08:48:36.068Z,6.73
2023-03-15T08:49:36.059Z,6.70
2023-03-15T08:50:36.044Z,6.61
2023-03-15T08:51:36.069Z,6.61
2023-03-15T08:52:36.055Z,6.64
2023-03-15T08:53:36.008Z,6.70
2023-03-15T08:54:35.957Z,6.73
2023-03-15T08:55:35.984Z,6.66
2023-03-15T08:56:35.944Z,6.64
2023-03-15T08:57:35.944Z,6.61
2023-03-15T08:58:35.927Z,6.55
2023-03-15T08:59:35.906Z,6.54
2023-03-15T09:00:35.946Z,6.51
2023-03-15T09:01:35.914Z,6.43
2023-03-15T09:02:35.923Z,6.41
2023-03-15T09:03:35.891Z,6.40
2023-03-15T09:04:35.943Z,6.49
2023-03-15T09:05:35.856Z,6.70
2023-03-15T09:06:35.807Z,7.02
2023-03-15T09:07:35.820Z,7.17
2023-03-15T09:08:35.783Z,7.23
2023-03-15T09:09:35.818Z,7.15
2023-03-15T09:10:35.752Z,7.07
2023-03-15T09:11:35.789Z,6.97
2023-03-15T09:12:35.725Z,6.94
2023-03-15T09:13:35.748Z,6.85
2023-03-15T09:14:35.688Z,6.84
2023-03-15T09:15:35.755Z,6.87
2023-03-15T09:16:35.713Z,6.94
2023-03-15T09:17:35.711Z,7.05
2023-03-15T09:18:35.659Z,7.16
2023-03-15T09:19:35.659Z,7.39
2023-03-15T09:20:35.634Z,7.43
2023-03-15T09:21:35.613Z,7.45
2023-03-15T09:22:39.525Z,7.37
2023-03-15T09:23:35.609Z,7.17
2023-03-15T09:24:35.569Z,7.06
2023-03-15T09:25:35.586Z,6.97
2023-03-15T09:26:35.543Z,6.94
2023-03-15T09:27:35.579Z,6.99
2023-03-15T09:28:35.510Z,7.06
2023-03-15T09:29:35.523Z,7.24
2023-03-15T09:30:35.587Z,7.37
2023-03-15T09:31:35.496Z,7.43
2023-03-15T09:32:35.646Z,7.42
2023-03-15T09:33:35.498Z,7.42
2023-03-15T09:34:41.701Z,7.35
2023-03-15T09:35:35.534Z,7.32
2023-03-15T09:36:35.422Z,7.27
2023-03-15T09:37:35.544Z,7.17
2023-03-15T09:38:35.430Z,7.12
2023-03-15T09:39:35.430Z,7.10
2023-03-15T09:40:35.373Z,7.10
2023-03-15T09:41:35.376Z,7.15
2023-03-15T09:42:35.339Z,7.12
2023-03-15T09:43:35.416Z,7.12
2023-03-15T09:44:35.291Z,7.21
2023-03-15T09:45:35.308Z,7.32
2023-03-15T09:46:35.324Z,7.50
2023-03-15T09:47:35.413Z,7.58
2023-03-15T09:48:35.261Z,7.72
2023-03-15T09:49:35.264Z,7.97
2023-03-15T09:50:35.232Z,8.22
2023-03-15T09:51:35.258Z,8.38
2023-03-15T09:52:35.313Z,8.40
2023-03-15T09:53:35.228Z,8.50
2023-03-15T09:54:35.221Z,8.55
2023-03-15T09:55:35.187Z,8.41
2023-03-15T09:56:35.145Z,8.34
2023-03-15T09:57:35.204Z,8.37
2023-03-15T09:58:35.116Z,8.40
2023-03-15T09:59:35.174Z,8.47
2023-03-15T10:00:35.078Z,8.56
2023-03-15T10:01:35.239Z,8.68
2023-03-15T10:02:35.196Z,8.87
2023-03-15T10:03:35.173Z,9.18
2023-03-15T10:04:35.072Z,9.17
2023-03-15T10:05:35.052Z,8.95
2023-03-15T10:06:37.439Z,8.79
2023-03-15T10:07:35.136Z,8.76
2023-03-15T10:08:35.027Z,8.77
2023-03-15T10:09:35.071Z,8.73
2023-03-15T10:10:34.966Z,8.65
2023-03-15T10:11:35.018Z,8.62
2023-03-15T10:12:34.943Z,8.48
2023-03-15T10:13:34.956Z,8.30
2023-03-15T10:14:34.960Z,8.25
2023-03-15T10:15:34.925Z,8.16
2023-03-15T10:16:34.901Z,8.12
2023-03-15T10:17:34.911Z,8.07
2023-03-15T10:18:34.873Z,8.01
2023-03-15T10:19:34.838Z,8.04
2023-03-15T10:20:34.825Z,8.10
2023-03-15T10:21:34.867Z,8.10
2023-03-15T10:22:34.790Z,8.04
2023-03-15T10:23:34.806Z,8.04
2023-03-15T10:24:34.744Z,8.01
2023-03-15T10:25:34.892Z,7.97
2023-03-15T10:26:34.767Z,7.95
2023-03-15T10:27:34.738Z,7.92
2023-03-15T10:28:37.056Z,7.92
2023-03-15T10:29:34.712Z,7.93
2023-03-15T10:30:34.687Z,7.93
2023-03-15T10:31:44.043Z,7.92
2023-03-15T10:32:34.713Z,7.97
2023-03-15T10:33:34.699Z,8.00
2023-03-15T10:34:34.644Z,8.01
2023-03-15T10:35:34.706Z,8.00
2023-03-15T10:36:34.654Z,7.97
2023-03-15T10:37:35.732Z,7.92
2023-03-15T10:38:34.600Z,7.90
2023-03-15T10:39:34.609Z,7.87
2023-03-15T10:40:34.545Z,7.85
2023-03-15T10:41:34.586Z,7.83
2023-03-15T10:42:34.541Z,7.80
2023-03-15T10:43:34.555Z,7.83
2023-03-15T10:44:34.487Z,7.87
2023-03-15T10:45:34.488Z,7.90
2023-03-15T10:46:34.517Z,7.93
2023-03-15T10:47:34.494Z,7.97
2023-03-15T10:48:34.440Z,7.98
2023-03-15T10:49:34.470Z,8.01
2023-03-15T10:50:34.400Z,8.02
2023-03-15T10:51:34.441Z,8.05
2023-03-15T10:52:34.381Z,8.05
2023-03-15T10:53:34.426Z,8.05
2023-03-15T10:54:34.368Z,8.05
2023-03-15T10:55:34.392Z,8.04
2023-03-15T10:56:34.331Z,8.04
2023-03-15T10:57:34.347Z,8.02
2023-03-15T10:58:34.358Z,7.98
2023-03-15T10:59:34.344Z,7.95
2023-03-15T11:00:34.268Z,7.90
2023-03-15T11:01:34.292Z,7.86
2023-03-15T11:02:34.276Z,7.77
2023-03-15T11:03:34.264Z,7.63
2023-03-15T11:04:34.500Z,7.52
2023-03-15T11:05:34.195Z,7.42
2023-03-15T11:06:34.263Z,7.34
2023-03-15T11:07:34.165Z,7.27
2023-03-15T11:08:34.213Z,7.20
2023-03-15T11:09:34.180Z,7.16
2023-03-15T11:10:34.168Z,7.12
2023-03-15T11:11:34.150Z,7.06
2023-03-15T11:12:34.160Z,7.06
2023-03-15T11:13:34.103Z,7.03
2023-03-15T11:14:34.152Z,7.03
2023-03-15T11:15:34.102Z,7.03
2023-03-15T11:16:34.128Z,7.03
2023-03-15T11:17:34.045Z,7.02
2023-03-15T11:18:34.066Z,7.05
2023-03-15T11:19:34.038Z,7.03
2023-03-15T11:20:34.153Z,7.05
2023-03-15T11:21:33.987Z,7.02
2023-03-15T11:22:34.002Z,7.02
2023-03-15T11:23:33.953Z,6.99
2023-03-15T11:24:34.100Z,6.95
2023-03-15T11:25:33.981Z,6.91
2023-03-15T11:26:33.974Z,6.91
2023-03-15T11:27:33.918Z,6.91
2023-03-15T11:28:33.953Z,6.87
2023-03-15T11:29:33.880Z,6.73
2023-03-15T11:30:33.912Z,6.46
2023-03-15T11:31:33.900Z,6.31
2023-03-15T11:32:33.928Z,6.21
2023-03-15T11:33:33.821Z,6.15
2023-03-15T11:34:33.900Z,6.09
2023-03-15T11:35:33.816Z,6.03
2023-03-15T11:36:33.826Z,6.00
2023-03-15T11:37:33.772Z,6.01
2023-03-15T11:38:33.795Z,6.01
2023-03-15T11:39:33.778Z,5.99
2023-03-15T11:40:33.773Z,5.96
2023-03-15T11:41:33.735Z,5.97
2023-03-15T11:42:33.735Z,5.96
2023-03-15T11:43:33.732Z,5.97
2023-03-15T11:44:33.743Z,5.97
2023-03-15T11:45:33.761Z,5.96
2023-03-15T11:46:33.683Z,5.94
2023-03-15T11:47:33.649Z,5.96
2023-03-15T11:48:33.739Z,5.94
2023-03-15T11:49:33.627Z,5.96
2023-03-15T11:50:33.649Z,6.00
2023-03-15T11:51:33.615Z,6.03
2023-03-15T11:52:33.604Z,6.08
2023-03-15T11:53:33.612Z,6.12
2023-03-15T11:54:33.590Z,6.17
2023-03-15T11:55:33.612Z,6.22
2023-03-15T11:56:33.562Z,6.25
2023-03-15T11:57:33.515Z,6.30
2023-03-15T11:58:33.543Z,6.31
2023-03-15T11:59:33.571Z,6.31
2023-03-15T12:00:33.509Z,6.31
2023-03-15T12:01:33.480Z,6.31
2023-03-15T12:02:33.485Z,6.33
2023-03-15T12:03:33.472Z,6.34
2023-03-15T12:04:33.452Z,6.33
2023-03-15T12:05:33.443Z,6.33
2023-03-15T12:06:33.390Z,6.34
2023-03-15T12:07:33.411Z,6.36
2023-03-15T12:08:33.369Z,6.37
2023-03-15T12:09:33.390Z,6.37
2023-03-15T12:10:33.391Z,6.43
2023-03-15T12:11:33.373Z,6.48
2023-03-15T12:12:33.318Z,6.51
2023-03-15T12:13:33.373Z,6.58
2023-03-15T12:14:33.317Z,6.62
2023-03-15T12:15:33.382Z,6.64
2023-03-15T12:16:33.336Z,6.70
2023-03-15T12:17:33.585Z,6.77
2023-03-15T12:18:33.253Z,6.81
2023-03-15T12:19:33.288Z,6.84
2023-03-15T12:20:33.224Z,6.85
2023-03-15T12:21:33.238Z,6.87
2023-03-15T12:22:33.202Z,6.85
2023-03-15T12:23:33.238Z,6.85
2023-03-15T12:24:33.157Z,6.87
2023-03-15T12:25:37.226Z,6.88
2023-03-15T12:26:33.137Z,6.92
2023-03-15T12:27:33.157Z,6.91
2023-03-15T12:28:33.121Z,6.92
2023-03-15T12:29:33.146Z,6.91
2023-03-15T12:30:33.093Z,6.89
2023-03-15T12:31:33.126Z,6.87
2023-03-15T12:32:33.093Z,6.85
2023-03-15T12:33:33.094Z,6.81
2023-03-15T12:34:33.013Z,6.81
2023-03-15T12:35:33.038Z,6.79
2023-03-15T12:36:33.046Z,6.77
2023-03-15T12:37:33.043Z,6.76
2023-03-15T12:38:32.970Z,6.74
2023-03-15T12:39:32.989Z,6.73
2023-03-15T12:40:32.960Z,6.77
2023-03-15T12:41:32.944Z,6.76
2023-03-15T12:42:32.915Z,6.79
2023-03-15T12:43:32.957Z,6.87
2023-03-15T12:44:32.899Z,6.88
2023-03-15T12:45:32.912Z,6.89
2023-03-15T12:46:32.981Z,6.92
2023-03-15T12:47:32.877Z,6.97
2023-03-15T12:48:32.863Z,6.99
2023-03-15T12:49:32.886Z,7.03
2023-03-15T12:50:32.803Z,7.02
2023-03-15T12:51:32.821Z,7.03
2023-03-15T12:52:32.794Z,7.06
2023-03-15T12:53:32.788Z,7.09
2023-03-15T12:54:32.780Z,7.12
2023-03-15T12:55:32.760Z,7.17
2023-03-15T12:56:32.793Z,7.17
2023-03-15T12:57:32.753Z,7.23
2023-03-15T12:58:32.700Z,7.27
2023-03-15T12:59:32.718Z,7.32
2023-03-15T13:00:32.692Z,7.39
2023-03-15T13:01:32.755Z,7.45
2023-03-15T13:02:42.908Z,7.52
2023-03-15T13:03:32.786Z,7.60
2023-03-15T13:04:32.629Z,7.67
2023-03-15T13:05:32.632Z,7.72
2023-03-15T13:06:32.601Z,7.79
2023-03-15T13:07:36.883Z,7.77
2023-03-15T13:08:32.598Z,7.77
2023-03-15T13:09:32.593Z,7.82
2023-03-15T13:10:32.565Z,7.89
2023-03-15T13:11:32.560Z,7.92
2023-03-15T13:12:32.582Z,7.92
2023-03-15T13:13:32.531Z,7.89
2023-03-15T13:14:32.547Z,7.89
2023-03-15T13:15:32.558Z,7.87
2023-03-15T13:16:32.457Z,7.89
2023-03-15T13:17:32.501Z,7.89
2023-03-15T13:18:32.484Z,7.89
2023-03-15T13:19:32.472Z,7.90